Time;durP1;ratioP1;P1;durP2;ratioP2;P2;SDS_P1;SDS_P2;PMS_P1;PMS_P2;Temp;Humidity;BMP_temperature;BMP_pressure;BME280_temperature;BME280_humidity;BME280_pressure;Samples;Min_cycle;Max_cycle;Signal;HPM_P1;HPM_P2
2022/07/16 00:01:22;;;;;;;4.78;2.00;;;16.70;99.90;;;;;;4949993;28;20506;-92
2022/07/16 00:01:48;;;;;;;4.13;1.95;;;16.60;99.90;;;;;;4947393;29;20134;-92
2022/07/16 00:04:14;;;;;;;4.90;1.98;;;16.60;99.90;;;;;;4950852;29;20130;-91
2022/07/16 00:06:41;;;;;;;4.53;2.10;;;16.60;99.90;;;;;;4951354;28;20126;-93
2022/07/16 00:09:06;;;;;;;3.72;1.90;;;16.60;99.90;;;;;;4950102;28;20412;-92
2022/07/16 00:11:32;;;;;;;3.67;1.75;;;16.50;99.90;;;;;;4952976;28;20031;-92
2022/07/16 00:13:57;;;;;;;5.25;1.90;;;16.50;99.90;;;;;;4951539;28;20035;-92
2022/07/16 00:16:23;;;;;;;4.82;2.20;;;16.40;99.90;;;;;;4953050;28;20107;-93
2022/07/16 00:21:33;;;;;;;4.72;2.05;;;16.40;99.90;;;;;;4935387;28;20064;-93
2022/07/16 00:23:59;;;;;;;5.32;2.20;;;16.30;99.90;;;;;;4938000;29;20052;-93
2022/07/16 00:26:24;;;;;;;4.78;2.08;;;16.40;99.90;;;;;;4937523;29;20066;-93
2022/07/16 00:28:50;;;;;;;5.45;2.20;;;16.40;99.90;;;;;;4964620;28;20054;-92
2022/07/16 00:31:16;;;;;;;5.22;2.05;;;16.30;99.90;;;;;;4933584;28;20048;-93
2022/07/16 00:33:42;;;;;;;4.35;2.10;;;16.30;99.90;;;;;;4932654;29;20044;-93
2022/07/16 00:36:08;;;;;;;5.32;2.20;;;16.30;99.90;;;;;;4932768;28;20044;-93
2022/07/16 00:38:34;;;;;;;5.43;2.45;;;16.40;99.90;;;;;;4951462;29;20047;-92
2022/07/16 00:40:59;;;;;;;6.32;2.03;;;16.40;99.90;;;;;;4950353;28;20078;-93
2022/07/16 00:43:25;;;;;;;5.00;2.35;;;16.40;99.90;;;;;;4951514;28;20043;-93
2022/07/16 00:45:50;;;;;;;6.45;2.63;;;16.40;99.90;;;;;;4950884;28;20129;-92
2022/07/16 00:48:16;;;;;;;6.07;2.50;;;16.40;99.90;;;;;;4952842;28;20046;-93
2022/07/16 00:50:41;;;;;;;5.78;2.70;;;16.40;99.90;;;;;;4950943;29;20047;-93
2022/07/16 00:53:09;;;;;;;5.18;2.58;;;16.40;99.90;;;;;;4965525;28;20039;-94
2022/07/16 00:55:35;;;;;;;5.57;2.60;;;16.40;99.90;;;;;;4951495;28;20047;-92
2022/07/16 00:58:01;;;;;;;4.95;2.50;;;16.40;99.90;;;;;;4951281;28;20047;-92
2022/07/16 01:00:28;;;;;;;5.88;2.80;;;16.40;99.90;;;;;;4945664;28;20392;-93
2022/07/16 01:02:54;;;;;;;6.57;2.75;;;16.50;99.90;;;;;;4943229;29;20098;-92
2022/07/16 01:05:20;;;;;;;7.82;3.05;;;16.50;99.90;;;;;;4950396;28;20369;-92
2022/07/16 01:07:46;;;;;;;7.20;3.08;;;16.50;99.90;;;;;;4948927;28;20043;-92
2022/07/16 01:10:13;;;;;;;5.88;2.70;;;16.50;99.90;;;;;;4962348;28;20465;-92
2022/07/16 01:12:38;;;;;;;6.57;2.85;;;16.50;99.90;;;;;;4943581;29;20074;-92
2022/07/16 01:15:05;;;;;;;6.22;2.90;;;16.50;99.90;;;;;;4963343;28;20853;-92
2022/07/16 01:17:30;;;;;;;7.40;2.90;;;16.50;99.90;;;;;;4949564;29;20164;-93
2022/07/16 01:19:56;;;;;;;7.80;2.95;;;16.50;99.90;;;;;;4931410;29;20535;-89
2022/07/16 01:22:23;;;;;;;6.78;3.00;;;16.50;99.90;;;;;;4942981;29;20126;-95
2022/07/16 01:24:50;;;;;;;7.88;3.42;;;16.50;99.90;;;;;;4948170;28;20049;-94
2022/07/16 01:27:17;;;;;;;7.57;3.50;;;16.50;99.90;;;;;;4951627;28;20054;-94
2022/07/16 01:29:43;;;;;;;6.43;3.28;;;16.40;99.90;;;;;;4921618;29;20044;-93
2022/07/16 01:32:09;;;;;;;6.57;3.70;;;16.40;99.90;;;;;;4967976;28;20051;-93
2022/07/16 01:34:35;;;;;;;6.25;3.58;;;16.40;99.90;;;;;;4953942;28;20039;-94
2022/07/16 01:37:03;;;;;;;8.57;3.92;;;16.50;99.90;;;;;;4953693;28;20043;-94
2022/07/16 01:39:30;;;;;;;8.25;3.58;;;16.30;99.90;;;;;;4969437;28;20095;-89
2022/07/16 01:41:58;;;;;;;8.50;3.53;;;16.30;99.90;;;;;;4964310;28;20036;-90
2022/07/16 01:44:25;;;;;;;6.82;3.22;;;16.30;99.90;;;;;;4950501;28;20043;-91
2022/07/16 01:46:55;;;;;;;8.18;3.50;;;16.30;99.90;;;;;;4953929;28;20053;-93
2022/07/16 01:49:22;;;;;;;6.90;3.57;;;16.20;99.90;;;;;;4941525;29;20067;-95
2022/07/16 01:51:48;;;;;;;9.57;4.20;;;16.20;99.90;;;;;;4970141;28;20054;-93
2022/07/16 01:54:14;;;;;;;8.95;4.70;;;16.20;99.90;;;;;;4952882;28;20040;-92
2022/07/16 01:56:40;;;;;;;7.93;4.70;;;16.20;99.90;;;;;;4945872;28;20091;-89
2022/07/16 01:59:06;;;;;;;8.65;4.50;;;16.10;99.90;;;;;;4934944;29;20453;-90
2022/07/16 02:01:31;;;;;;;8.40;4.93;;;16.10;99.90;;;;;;4943947;28;20086;-91
2022/07/16 02:03:57;;;;;;;9.10;4.78;;;16.10;99.90;;;;;;4940212;29;20054;-91
2022/07/16 02:06:23;;;;;;;9.32;5.05;;;16.10;99.90;;;;;;4952531;29;20047;-92
2022/07/16 02:08:48;;;;;;;9.90;4.93;;;16.00;99.90;;;;;;4964797;28;20047;-91
2022/07/16 02:11:14;;;;;;;8.77;5.40;;;16.10;99.90;;;;;;4951820;29;20043;-90
2022/07/16 02:13:40;;;;;;;8.82;5.30;;;16.10;99.90;;;;;;4950983;29;20073;-90
2022/07/16 02:16:06;;;;;;;9.52;5.15;;;16.10;99.90;;;;;;4947069;28;20045;-92
2022/07/16 02:18:31;;;;;;;9.75;4.95;;;16.00;99.90;;;;;;4952797;28;20039;-91
2022/07/16 02:20:57;;;;;;;9.70;5.60;;;16.00;99.90;;;;;;4951082;28;20488;-90
2022/07/16 02:23:23;;;;;;;8.43;5.20;;;16.00;99.90;;;;;;4967698;28;20094;-92
2022/07/16 02:25:49;;;;;;;9.82;5.38;;;16.00;99.90;;;;;;4952346;28;20408;-91
2022/07/16 02:28:15;;;;;;;8.95;5.00;;;16.00;99.90;;;;;;4968741;28;20043;-91
2022/07/16 02:30:46;;;;;;;8.63;4.90;;;15.90;99.90;;;;;;4949598;28;20035;-91
2022/07/16 02:33:18;;;;;;;10.85;5.60;;;15.90;99.90;;;;;;4950463;28;20195;-90
2022/07/16 02:35:44;;;;;;;9.07;5.57;;;15.90;99.90;;;;;;4951406;29;20047;-90
2022/07/16 02:38:12;;;;;;;8.35;4.95;;;15.90;99.90;;;;;;4951283;28;20101;-90
2022/07/16 02:40:39;;;;;;;8.48;5.18;;;16.00;99.90;;;;;;4951406;28;20043;-90
2022/07/16 02:43:06;;;;;;;8.07;5.35;;;15.90;99.90;;;;;;4938068;29;20058;-91
2022/07/16 02:45:37;;;;;;;7.85;4.85;;;15.90;99.90;;;;;;4965638;28;20047;-91
2022/07/16 02:48:04;;;;;;;8.10;5.32;;;15.90;99.90;;;;;;4938795;29;20071;-91
2022/07/16 02:50:30;;;;;;;10.57;5.82;;;15.90;99.90;;;;;;4938502;29;20062;-91
2022/07/16 02:52:56;;;;;;;9.43;5.20;;;15.80;99.90;;;;;;4952816;28;20062;-91
2022/07/16 02:55:22;;;;;;;8.23;5.10;;;15.80;99.90;;;;;;4955501;28;20079;-90
2022/07/16 02:57:48;;;;;;;8.80;4.80;;;15.80;99.90;;;;;;4949145;29;20082;-91
2022/07/16 03:00:16;;;;;;;8.38;4.60;;;15.80;99.90;;;;;;4954716;28;20039;-92
2022/07/16 03:02:43;;;;;;;7.72;4.28;;;15.80;99.90;;;;;;4952777;28;20075;-92
2022/07/16 03:05:09;;;;;;;9.65;4.57;;;15.80;99.90;;;;;;4968689;28;20115;-91
2022/07/16 03:07:35;;;;;;;8.85;4.35;;;15.80;99.90;;;;;;4966593;28;20047;-95
2022/07/16 03:10:02;;;;;;;9.27;4.50;;;15.80;99.90;;;;;;4952857;28;20046;-94
2022/07/16 03:12:27;;;;;;;8.38;3.85;;;15.80;99.90;;;;;;4951823;29;20102;-91
2022/07/16 03:14:53;;;;;;;8.65;3.83;;;15.80;99.90;;;;;;4946040;28;20035;-93
2022/07/16 03:17:18;;;;;;;8.07;3.58;;;15.70;99.90;;;;;;4919795;29;20051;-93
2022/07/16 03:19:44;;;;;;;8.63;4.20;;;15.70;99.90;;;;;;4934864;29;20087;-92
2022/07/16 03:22:10;;;;;;;9.27;3.70;;;15.70;99.90;;;;;;4935891;29;20060;-94
2022/07/16 03:24:38;;;;;;;6.72;3.40;;;15.70;99.90;;;;;;4937606;29;20221;-93
2022/07/16 03:27:04;;;;;;;7.60;3.40;;;15.70;99.90;;;;;;4942444;29;20047;-93
2022/07/16 03:29:29;;;;;;;7.45;3.10;;;15.80;99.90;;;;;;4950624;28;20524;-91
2022/07/16 03:31:55;;;;;;;8.82;2.75;;;15.60;99.90;;;;;;4941173;28;20098;-91
2022/07/16 03:34:22;;;;;;;7.63;2.65;;;15.60;99.90;;;;;;4946545;28;20042;-94
2022/07/16 03:36:47;;;;;;;6.85;2.60;;;15.60;99.90;;;;;;4968900;28;20043;-92
2022/07/16 03:39:13;;;;;;;7.35;2.40;;;15.60;99.90;;;;;;4963228;28;20050;-93
2022/07/16 03:41:39;;;;;;;9.00;2.78;;;15.50;99.90;;;;;;4954047;29;20051;-94
2022/07/16 03:44:07;;;;;;;7.65;2.60;;;15.50;99.90;;;;;;4956067;28;20523;-95
2022/07/16 03:46:35;;;;;;;6.03;2.50;;;15.50;99.90;;;;;;4958273;28;20468;-95
2022/07/16 03:49:02;;;;;;;7.22;2.83;;;15.50;99.90;;;;;;4964957;28;20047;-94
2022/07/16 03:51:27;;;;;;;7.28;2.63;;;15.50;99.90;;;;;;4955403;28;20422;-93
2022/07/16 03:53:53;;;;;;;8.38;2.70;;;15.40;99.90;;;;;;4970494;28;20039;-95
2022/07/16 03:56:19;;;;;;;8.27;2.40;;;15.40;99.90;;;;;;4957046;28;20039;-94
2022/07/16 03:58:45;;;;;;;9.25;2.88;;;15.40;99.90;;;;;;4936335;29;20137;-93
2022/07/16 04:01:11;;;;;;;6.63;2.53;;;15.40;99.90;;;;;;4944524;29;20032;-95
2022/07/16 04:03:37;;;;;;;7.72;2.40;;;15.40;99.90;;;;;;4956086;28;20043;-95
2022/07/16 04:06:03;;;;;;;6.43;2.30;;;15.40;99.90;;;;;;4953464;28;20051;-93
2022/07/16 04:08:29;;;;;;;6.90;2.45;;;15.40;99.90;;;;;;4958471;28;20048;-93
2022/07/16 04:10:55;;;;;;;7.30;2.33;;;15.30;99.90;;;;;;4921201;29;20126;-91
2022/07/16 04:13:22;;;;;;;8.18;2.70;;;15.30;99.90;;;;;;4939775;29;20039;-93
2022/07/16 04:15:47;;;;;;;6.50;2.28;;;15.40;99.90;;;;;;4954267;28;20043;-94
2022/07/16 04:18:13;;;;;;;7.22;2.72;;;15.30;99.90;;;;;;4954404;28;20043;-95
2022/07/16 04:20:39;;;;;;;8.18;2.60;;;15.30;99.90;;;;;;4967776;28;20058;-96
2022/07/16 04:23:05;;;;;;;8.10;2.88;;;15.30;99.90;;;;;;4952147;28;20058;-94
2022/07/16 04:25:31;;;;;;;8.70;2.63;;;15.30;99.90;;;;;;4951716;28;20047;-93
2022/07/16 04:27:57;;;;;;;7.95;2.80;;;15.40;99.90;;;;;;4934898;28;20052;-93
2022/07/16 04:30:23;;;;;;;6.68;2.85;;;15.40;99.90;;;;;;4948035;28;20043;-94
2022/07/16 04:32:49;;;;;;;6.60;2.60;;;15.30;99.90;;;;;;4947593;29;20072;-94
2022/07/16 04:35:16;;;;;;;9.85;3.00;;;15.40;99.90;;;;;;4951492;29;20043;-92
2022/07/16 04:37:42;;;;;;;7.35;2.88;;;15.30;99.90;;;;;;4959785;28;20050;-94
2022/07/16 04:40:09;;;;;;;8.80;2.72;;;15.30;99.90;;;;;;4949564;28;20039;-93
2022/07/16 04:42:39;;;;;;;8.55;2.80;;;15.30;99.90;;;;;;4934576;28;20126;-90
2022/07/16 04:45:05;;;;;;;8.27;2.92;;;15.30;99.90;;;;;;4945512;28;20058;-92
2022/07/16 04:47:31;;;;;;;7.55;2.70;;;15.40;99.90;;;;;;4942184;28;20501;-92
2022/07/16 04:49:57;;;;;;;7.90;2.80;;;15.40;99.90;;;;;;4943704;28;20075;-88
2022/07/16 04:52:22;;;;;;;8.93;3.15;;;15.40;99.90;;;;;;4933368;29;20081;-90
2022/07/16 04:54:48;;;;;;;7.60;2.55;;;15.40;99.90;;;;;;4949761;29;20045;-90
2022/07/16 04:57:13;;;;;;;7.40;2.83;;;15.50;99.90;;;;;;4950181;29;20047;-87
2022/07/16 04:59:39;;;;;;;6.35;2.60;;;15.50;99.90;;;;;;4933277;29;20091;-91
2022/07/16 05:04:48;;;;;;;7.97;2.90;;;15.50;99.90;;;;;;4941954;29;20110;-89
2022/07/16 05:07:14;;;;;;;7.22;2.72;;;15.60;99.90;;;;;;4951461;29;20039;-89
2022/07/16 05:09:40;;;;;;;9.30;2.80;;;15.60;99.90;;;;;;4933186;29;20043;-88
2022/07/16 05:12:06;;;;;;;7.32;2.55;;;15.60;99.90;;;;;;4965967;28;20050;-94
2022/07/16 05:14:31;;;;;;;8.30;2.60;;;15.60;99.90;;;;;;4941888;28;20499;-90
2022/07/16 05:16:57;;;;;;;8.50;2.60;;;15.70;99.90;;;;;;4947049;28;20865;-88
2022/07/16 05:19:23;;;;;;;7.65;2.60;;;15.70;99.90;;;;;;4929873;29;20035;-90
2022/07/16 05:21:49;;;;;;;7.03;2.53;;;15.80;99.90;;;;;;4954173;29;20059;-93
2022/07/16 05:24:15;;;;;;;5.82;2.42;;;15.80;99.90;;;;;;4955753;28;20043;-90
2022/07/16 05:26:41;;;;;;;7.88;2.28;;;15.80;99.90;;;;;;4938934;29;20397;-91
2022/07/16 05:29:07;;;;;;;9.02;2.60;;;15.90;99.90;;;;;;4937931;29;20050;-96
2022/07/16 05:31:32;;;;;;;7.65;2.28;;;15.90;99.90;;;;;;4935954;29;20074;-93
2022/07/16 05:33:58;;;;;;;7.97;2.17;;;15.90;99.90;;;;;;4937621;28;20432;-89
2022/07/16 05:36:23;;;;;;;8.13;2.35;;;15.90;99.90;;;;;;4950095;29;20392;-93
2022/07/16 05:38:50;;;;;;;8.38;2.25;;;15.90;99.90;;;;;;4939278;28;20069;-91
2022/07/16 05:41:15;;;;;;;7.00;2.08;;;15.90;99.90;;;;;;4948305;28;20054;-90
2022/07/16 05:43:41;;;;;;;6.78;2.00;;;15.80;99.90;;;;;;4928160;29;20051;-90
2022/07/16 05:46:06;;;;;;;5.88;1.90;;;15.90;99.90;;;;;;4950910;28;20500;-91
2022/07/16 05:48:32;;;;;;;8.18;2.05;;;15.90;99.90;;;;;;4950444;29;20043;-92
2022/07/16 05:50:57;;;;;;;7.03;2.10;;;15.90;99.90;;;;;;4969021;28;20083;-93
2022/07/16 05:53:23;;;;;;;6.75;1.80;;;16.00;99.90;;;;;;4956362;28;20071;-90
2022/07/16 05:55:48;;;;;;;7.90;2.13;;;16.00;99.90;;;;;;4954679;28;20055;-93
2022/07/16 05:58:14;;;;;;;8.60;2.10;;;16.10;99.90;;;;;;4944323;28;20052;-90
2022/07/16 06:00:40;;;;;;;7.68;1.90;;;16.10;99.90;;;;;;4962840;28;20040;-90
2022/07/16 06:03:05;;;;;;;9.52;2.20;;;16.20;99.90;;;;;;4944139;29;20126;-93
2022/07/16 06:05:33;;;;;;;7.97;1.80;;;16.20;99.90;;;;;;4945634;28;20130;-93
2022/07/16 06:07:59;;;;;;;6.95;1.83;;;16.30;99.90;;;;;;4950441;28;20090;-94
2022/07/16 06:10:25;;;;;;;7.20;2.08;;;16.30;99.90;;;;;;4962224;28;20505;-90
2022/07/16 06:12:51;;;;;;;7.10;1.70;;;16.40;99.90;;;;;;4930430;29;20046;-92
2022/07/16 06:15:17;;;;;;;8.57;1.90;;;16.40;99.90;;;;;;4952052;28;20047;-93
2022/07/16 06:17:43;;;;;;;7.68;1.83;;;16.50;99.90;;;;;;4946938;29;20412;-91
2022/07/16 06:20:10;;;;;;;7.35;1.80;;;16.50;99.90;;;;;;4936840;29;20109;-91
2022/07/16 06:22:36;;;;;;;6.38;1.60;;;16.60;99.90;;;;;;4953470;28;20054;-88
2022/07/16 06:25:03;;;;;;;10.32;2.38;;;16.70;99.90;;;;;;4953258;29;20047;-91
2022/07/16 06:27:28;;;;;;;7.40;1.90;;;16.70;99.90;;;;;;4948714;28;20126;-86
2022/07/16 06:29:54;;;;;;;7.38;1.70;;;16.70;99.90;;;;;;4946165;29;20038;-89
2022/07/16 06:32:19;;;;;;;6.18;1.38;;;16.90;99.90;;;;;;4938601;29;20047;-93
2022/07/16 06:34:45;;;;;;;8.15;1.80;;;16.80;99.90;;;;;;4950262;29;20126;-92
2022/07/16 06:37:10;;;;;;;5.03;1.40;;;16.90;99.90;;;;;;4969670;28;20055;-91
2022/07/16 06:39:36;;;;;;;7.85;1.60;;;16.90;99.90;;;;;;4954804;28;20046;-90
2022/07/16 06:42:02;;;;;;;6.45;1.40;;;16.90;99.90;;;;;;4961973;28;20223;-88
2022/07/16 06:44:27;;;;;;;6.80;1.48;;;17.00;99.90;;;;;;4938722;28;20048;-90
2022/07/16 06:46:54;;;;;;;7.65;1.88;;;17.10;99.90;;;;;;4942759;29;20047;-88
2022/07/16 06:49:19;;;;;;;5.82;1.40;;;17.20;99.90;;;;;;4948675;28;20043;-90
2022/07/16 06:51:45;;;;;;;6.22;1.33;;;17.30;99.90;;;;;;4944563;28;20108;-88
2022/07/16 06:54:10;;;;;;;6.22;1.35;;;17.40;99.90;;;;;;4944841;29;20040;-92
2022/07/16 06:56:36;;;;;;;5.72;1.38;;;17.30;99.90;;;;;;4943239;28;20081;-89
2022/07/16 06:59:02;;;;;;;5.38;1.23;;;17.30;99.90;;;;;;4932142;29;20058;-89
2022/07/16 07:01:27;;;;;;;5.03;1.20;;;17.30;99.90;;;;;;4950320;29;20051;-90
2022/07/16 07:03:53;;;;;;;6.35;1.20;;;17.50;99.90;;;;;;4950653;28;20063;-91
2022/07/16 07:06:18;;;;;;;6.63;1.30;;;17.50;99.90;;;;;;4957269;28;20134;-87
2022/07/16 07:08:44;;;;;;;6.28;1.50;;;17.50;99.90;;;;;;4944126;29;20039;-88
2022/07/16 07:11:10;;;;;;;5.30;1.10;;;17.60;99.90;;;;;;4951402;28;20092;-92
2022/07/16 07:13:37;;;;;;;6.07;1.20;;;17.60;99.90;;;;;;4948431;29;20083;-89
2022/07/16 07:16:03;;;;;;;5.70;1.30;;;17.70;99.90;;;;;;4947221;28;20055;-91
2022/07/16 07:18:29;;;;;;;6.72;1.60;;;17.80;99.90;;;;;;4935834;29;20408;-90
2022/07/16 07:20:59;;;;;;;6.95;1.05;;;17.90;99.90;;;;;;4950746;28;20130;-89
2022/07/16 07:23:25;;;;;;;7.78;1.30;;;18.00;99.90;;;;;;4952882;28;20058;-89
2022/07/16 07:25:50;;;;;;;5.70;1.17;;;18.00;99.90;;;;;;4964579;28;20043;-89
2022/07/16 07:28:16;;;;;;;6.68;1.20;;;18.10;99.90;;;;;;4949522;28;20043;-90
2022/07/16 07:30:41;;;;;;;8.18;1.33;;;18.00;99.90;;;;;;4951153;29;20043;-83
2022/07/16 07:33:07;;;;;;;5.97;1.13;;;17.90;99.90;;;;;;4946284;29;20507;-86
2022/07/16 07:35:33;;;;;;;5.70;1.20;;;17.70;99.90;;;;;;4967294;28;20043;-85
2022/07/16 07:37:59;;;;;;;6.03;1.27;;;17.70;99.90;;;;;;4966372;28;20055;-90
2022/07/16 07:40:24;;;;;;;6.00;1.13;;;17.70;99.90;;;;;;4951397;29;20039;-90
2022/07/16 07:42:50;;;;;;;5.53;1.02;;;17.70;99.90;;;;;;4950828;28;20054;-89
2022/07/16 07:45:15;;;;;;;6.07;1.20;;;17.60;99.90;;;;;;4952075;28;20096;-92
2022/07/16 07:47:41;;;;;;;5.68;1.00;;;17.50;99.90;;;;;;4952200;28;20404;-92
2022/07/16 07:50:08;;;;;;;6.30;1.00;;;17.40;99.90;;;;;;4951591;29;20074;-89
2022/07/16 07:52:34;;;;;;;5.43;1.00;;;17.40;99.90;;;;;;4970597;28;20052;-89
2022/07/16 07:55:00;;;;;;;4.93;1.10;;;17.40;99.90;;;;;;4954726;28;20073;-89
2022/07/16 07:57:25;;;;;;;3.88;0.85;;;17.40;99.90;;;;;;4953393;28;20047;-89
2022/07/16 07:59:51;;;;;;;7.22;1.17;;;17.40;99.90;;;;;;4952061;29;20369;-89
2022/07/16 08:02:17;;;;;;;5.97;1.42;;;17.50;99.90;;;;;;4954049;28;20404;-89
2022/07/16 08:04:42;;;;;;;5.57;1.05;;;17.70;99.90;;;;;;4953139;29;20325;-92
2022/07/16 08:07:09;;;;;;;4.60;1.23;;;17.90;99.90;;;;;;4956775;29;20062;-89
2022/07/16 08:09:35;;;;;;;5.35;1.08;;;18.20;99.90;;;;;;4956240;29;20047;-90
2022/07/16 08:12:00;;;;;;;3.55;1.08;;;18.10;99.90;;;;;;4950146;28;20452;-88
2022/07/16 08:14:26;;;;;;;5.70;1.13;;;18.10;99.90;;;;;;4951321;29;20039;-89
2022/07/16 08:16:52;;;;;;;5.07;1.17;;;17.90;99.90;;;;;;4950408;29;20047;-90
2022/07/16 08:19:17;;;;;;;6.22;0.82;;;17.80;99.90;;;;;;4952376;28;20540;-88
2022/07/16 08:21:43;;;;;;;5.20;0.90;;;17.70;99.90;;;;;;4966676;28;20043;-93
2022/07/16 08:26:52;;;;;;;4.55;1.15;;;17.80;99.90;;;;;;4950207;28;20048;-91
2022/07/16 08:29:18;;;;;;;6.40;1.35;;;18.00;99.90;;;;;;4952231;28;20393;-92
2022/07/16 08:31:43;;;;;;;5.00;1.10;;;18.10;99.90;;;;;;4950417;29;20047;-93
2022/07/16 08:34:09;;;;;;;4.53;0.90;;;18.30;99.90;;;;;;4951483;28;20051;-89
2022/07/16 08:36:36;;;;;;;5.95;0.98;;;18.30;99.90;;;;;;4951705;28;20065;-89
2022/07/16 08:39:02;;;;;;;4.93;1.00;;;18.30;99.90;;;;;;4952858;28;20119;-91
2022/07/16 08:41:29;;;;;;;5.18;1.17;;;18.40;99.90;;;;;;4936492;29;20110;-89
2022/07/16 08:43:55;;;;;;;4.35;0.90;;;18.40;99.90;;;;;;4953599;29;20459;-86
2022/07/16 08:46:21;;;;;;;6.65;1.08;;;18.40;99.90;;;;;;4954020;28;20502;-88
2022/07/16 08:48:52;;;;;;;4.07;1.10;;;18.50;99.90;;;;;;4970125;28;20477;-92
2022/07/16 08:51:22;;;;;;;4.13;0.85;;;18.50;99.90;;;;;;4955756;28;20058;-90
2022/07/16 08:53:50;;;;;;;4.30;0.85;;;18.50;99.90;;;;;;4953821;29;20062;-91
2022/07/16 08:56:17;;;;;;;6.25;1.15;;;18.40;99.90;;;;;;4954200;29;20405;-88
2022/07/16 08:58:43;;;;;;;5.07;1.13;;;18.20;99.90;;;;;;4954194;29;20485;-90
2022/07/16 09:01:09;;;;;;;6.72;1.00;;;18.20;99.90;;;;;;4953429;28;20054;-91
2022/07/16 09:03:34;;;;;;;5.20;1.20;;;18.20;99.90;;;;;;4954787;29;20487;-91
2022/07/16 09:06:00;;;;;;;3.85;1.10;;;18.20;99.90;;;;;;4953809;28;20051;-91
2022/07/16 09:08:26;;;;;;;4.03;0.93;;;18.30;99.90;;;;;;4955695;29;20047;-90
2022/07/16 09:10:52;;;;;;;7.00;1.20;;;18.40;99.90;;;;;;4953064;28;20058;-90
2022/07/16 09:13:17;;;;;;;6.13;1.00;;;18.40;99.90;;;;;;4970475;28;20043;-91
2022/07/16 09:15:44;;;;;;;4.65;0.90;;;18.40;99.90;;;;;;4953312;28;20051;-90
2022/07/16 09:18:15;;;;;;;5.97;1.20;;;18.50;99.90;;;;;;4954790;28;20093;-90
2022/07/16 09:21:00;;;;;;;6.47;1.10;;;18.60;99.90;;;;;;4953895;28;20059;-89
2022/07/16 09:23:37;;;;;;;4.45;0.93;;;18.70;99.90;;;;;;4953194;29;20047;-91
2022/07/16 09:26:08;;;;;;;5.00;1.13;;;18.90;99.90;;;;;;4954322;28;20050;-92
2022/07/16 09:28:53;;;;;;;4.60;1.10;;;19.10;99.90;;;;;;4953530;29;20051;-89
2022/07/16 09:31:40;;;;;;;4.43;1.20;;;19.30;99.90;;;;;;4953641;29;20047;-91
2022/07/16 09:34:13;;;;;;;5.13;1.20;;;19.40;99.90;;;;;;4952835;29;20047;-90
2022/07/16 09:36:54;;;;;;;6.68;1.10;;;19.30;99.90;;;;;;4954717;28;20047;-88
2022/07/16 09:39:20;;;;;;;6.82;1.00;;;19.30;99.90;;;;;;4953490;29;20122;-90
2022/07/16 09:41:47;;;;;;;7.38;1.27;;;19.30;99.90;;;;;;4953148;29;20058;-87
2022/07/16 09:44:16;;;;;;;5.82;1.10;;;19.30;99.90;;;;;;4953641;29;20121;-87
2022/07/16 09:47:04;;;;;;;8.77;1.73;;;19.20;99.90;;;;;;4954271;28;20431;-89
2022/07/16 09:49:32;;;;;;;3.55;1.02;;;19.20;99.90;;;;;;4954540;28;20126;-92
2022/07/16 09:51:58;;;;;;;5.80;1.10;;;19.20;99.90;;;;;;4954004;29;20131;-86
2022/07/16 09:54:33;;;;;;;5.63;1.52;;;19.10;99.90;;;;;;4952909;28;20233;-91
2022/07/16 09:57:15;;;;;;;5.13;1.25;;;19.00;99.90;;;;;;4968514;28;20069;-89
2022/07/16 09:59:42;;;;;;;5.00;1.17;;;18.80;99.90;;;;;;4952919;28;20047;-89
2022/07/16 10:02:08;;;;;;;6.13;1.00;;;18.90;99.90;;;;;;4968866;28;20451;-90
2022/07/16 10:04:33;;;;;;;7.40;2.00;;;18.90;99.90;;;;;;4953022;28;20053;-89
2022/07/16 10:06:59;;;;;;;4.70;1.00;;;19.00;99.90;;;;;;4967588;28;20035;-88
2022/07/16 10:09:26;;;;;;;5.45;0.98;;;19.10;99.90;;;;;;4969482;28;20500;-91
2022/07/16 10:11:56;;;;;;;7.32;1.13;;;19.10;99.90;;;;;;4953475;29;20035;-91
2022/07/16 10:14:23;;;;;;;6.47;1.33;;;19.10;99.90;;;;;;4952787;28;20055;-91
2022/07/16 10:16:49;;;;;;;5.40;0.98;;;19.00;99.90;;;;;;4952633;29;20046;-91
2022/07/16 10:19:15;;;;;;;6.10;1.58;;;19.00;99.90;;;;;;4953343;29;20134;-89
2022/07/16 10:22:11;;;;;;;5.93;1.35;;;19.00;99.90;;;;;;4952716;28;20090;-91
2022/07/16 10:24:46;;;;;;;7.47;1.27;;;18.90;99.90;;;;;;4936944;29;20053;-88
2022/07/16 10:27:35;;;;;;;6.32;1.17;;;19.00;99.90;;;;;;4953547;28;20039;-90
2022/07/16 10:30:24;;;;;;;6.85;1.30;;;19.10;99.90;;;;;;4951839;29;20083;-89
2022/07/16 10:33:10;;;;;;;5.07;1.10;;;19.10;99.90;;;;;;4968432;28;20423;-93
2022/07/16 10:35:38;;;;;;;5.07;1.10;;;19.10;99.90;;;;;;4968841;28;20457;-89
2022/07/16 10:38:21;;;;;;;5.88;1.35;;;19.00;99.90;;;;;;4950982;28;20041;-92
2022/07/16 10:41:05;;;;;;;6.25;1.23;;;19.10;99.90;;;;;;4953501;28;20130;-89
2022/07/16 10:43:32;;;;;;;3.38;0.90;;;19.20;99.90;;;;;;4968569;28;20043;-91
2022/07/16 10:46:00;;;;;;;6.38;1.38;;;19.40;99.90;;;;;;4952872;28;20443;-88
2022/07/16 10:48:36;;;;;;;6.53;1.30;;;19.40;99.90;;;;;;4968516;28;20126;-90
2022/07/16 10:51:19;;;;;;;4.28;1.10;;;19.30;99.90;;;;;;4952383;29;20054;-90
2022/07/16 10:53:57;;;;;;;3.10;0.85;;;19.10;99.20;;;;;;4952758;28;20082;-91
2022/07/16 10:56:46;;;;;;;6.28;1.40;;;19.10;99.90;;;;;;4952695;29;20054;-89
2022/07/16 10:59:21;;;;;;;6.70;1.10;;;19.40;99.90;;;;;;4953214;28;20058;-91
2022/07/16 11:01:49;;;;;;;6.55;1.25;;;19.60;99.90;;;;;;4951000;28;20039;-92
2022/07/16 11:04:15;;;;;;;3.72;1.02;;;19.80;98.40;;;;;;4952153;29;20051;-88
2022/07/16 11:06:49;;;;;;;6.97;1.30;;;19.90;98.00;;;;;;4951497;29;20054;-90
2022/07/16 11:09:22;;;;;;;5.43;1.02;;;19.90;98.10;;;;;;4950086;28;20339;-92
2022/07/16 11:11:48;;;;;;;5.28;1.40;;;19.70;98.80;;;;;;4950959;28;20126;-92
2022/07/16 11:14:13;;;;;;;6.35;1.55;;;19.60;99.00;;;;;;4953082;28;20103;-92
2022/07/16 11:16:51;;;;;;;6.28;1.60;;;19.50;98.80;;;;;;4953288;28;20055;-86
2022/07/16 11:19:17;;;;;;;5.25;1.30;;;19.60;97.40;;;;;;4952688;28;20432;-91
2022/07/16 11:21:57;;;;;;;5.03;1.08;;;19.70;98.80;;;;;;4950713;28;20054;-89
2022/07/16 11:24:25;;;;;;;6.40;1.42;;;19.80;99.00;;;;;;4952062;29;20055;-91
2022/07/16 11:26:51;;;;;;;4.78;1.05;;;19.70;99.70;;;;;;4966884;28;20167;-91
2022/07/16 11:29:18;;;;;;;7.18;1.35;;;19.60;99.00;;;;;;4951394;29;20043;-92
2022/07/16 11:31:44;;;;;;;6.05;1.23;;;19.50;99.00;;;;;;4950967;29;20051;-86
2022/07/16 11:34:11;;;;;;;6.55;1.40;;;19.30;98.90;;;;;;4950675;28;20055;-89
2022/07/16 11:36:44;;;;;;;6.05;1.17;;;19.50;99.10;;;;;;4950892;28;20058;-88
2022/07/16 11:39:18;;;;;;;4.93;1.10;;;19.60;97.50;;;;;;4952242;28;20051;-89
2022/07/16 11:41:45;;;;;;;5.13;1.23;;;19.70;97.70;;;;;;4954306;28;20054;-91
2022/07/16 11:44:18;;;;;;;6.25;1.35;;;19.90;97.50;;;;;;4952669;28;20047;-89
2022/07/16 11:46:51;;;;;;;6.35;1.35;;;19.90;98.20;;;;;;4951035;29;20047;-91
2022/07/16 11:49:41;;;;;;;7.05;1.50;;;19.90;99.60;;;;;;4952148;28;20073;-89
2022/07/16 11:52:14;;;;;;;5.07;1.23;;;19.80;99.90;;;;;;4945743;28;20059;-89
2022/07/16 11:54:41;;;;;;;6.50;1.60;;;19.80;99.90;;;;;;4967630;28;20051;-89
2022/07/16 11:57:09;;;;;;;5.65;1.20;;;19.70;99.90;;;;;;4950268;29;20523;-89
2022/07/16 11:59:40;;;;;;;6.43;1.30;;;19.80;99.70;;;;;;4935117;29;20103;-91
2022/07/16 12:02:08;;;;;;;5.90;1.13;;;20.00;99.80;;;;;;4950629;29;20137;-89
2022/07/16 12:04:38;;;;;;;4.55;1.10;;;20.10;99.60;;;;;;4966648;28;20047;-89
2022/07/16 12:07:06;;;;;;;5.35;1.30;;;20.20;99.20;;;;;;4964109;28;20062;-89
2022/07/16 12:09:34;;;;;;;4.68;1.08;;;20.30;97.40;;;;;;4965354;28;20416;-87
2022/07/16 12:12:04;;;;;;;5.03;1.00;;;20.30;97.30;;;;;;4951495;28;20047;-90
2022/07/16 12:14:56;;;;;;;7.60;1.20;;;20.40;98.10;;;;;;4950988;29;20045;-93
2022/07/16 12:17:31;;;;;;;5.95;1.98;;;20.20;98.80;;;;;;4949764;28;20178;-89
2022/07/16 12:20:17;;;;;;;8.18;1.35;;;20.00;99.10;;;;;;4949779;28;20069;-91
2022/07/16 12:22:53;;;;;;;5.68;1.25;;;19.70;99.90;;;;;;4951894;28;20400;-87
2022/07/16 12:25:39;;;;;;;5.40;1.20;;;19.50;99.90;;;;;;4951758;28;20043;-88
2022/07/16 12:28:17;;;;;;;5.90;1.23;;;19.60;99.90;;;;;;4949855;29;20105;-86
2022/07/16 12:30:51;;;;;;;6.07;1.20;;;19.80;99.20;;;;;;4951410;29;20111;-91
2022/07/16 12:33:23;;;;;;;5.00;1.20;;;19.90;99.50;;;;;;4951184;29;20094;-88
2022/07/16 12:35:57;;;;;;;4.25;1.10;;;20.10;99.50;;;;;;4950071;29;20059;-89
2022/07/16 12:39:00;;;;;;;5.55;1.35;;;20.10;99.10;;;;;;4950342;28;20043;-88
2022/07/16 12:41:36;;;;;;;7.15;1.38;;;20.20;99.30;;;;;;4943520;29;20055;-89
2022/07/16 12:44:05;;;;;;;6.25;1.10;;;20.20;99.30;;;;;;4966098;28;20049;-91
2022/07/16 12:46:33;;;;;;;6.25;1.08;;;20.10;98.60;;;;;;4966383;28;20048;-90
2022/07/16 12:49:08;;;;;;;6.88;1.23;;;20.00;98.50;;;;;;4950696;29;20039;-91
2022/07/16 12:51:39;;;;;;;4.63;1.02;;;20.10;98.80;;;;;;4950583;29;20062;-86
2022/07/16 12:54:07;;;;;;;6.68;1.33;;;20.10;96.40;;;;;;4949649;29;20127;-89
2022/07/16 12:59:18;;;;;;;4.53;0.93;;;20.40;97.20;;;;;;4952231;28;20130;-90